Time;durP1;ratioP1;P1;durP2;ratioP2;P2;SDS_P1;SDS_P2;PMS_P1;PMS_P2;Temp;Humidity;BMP_temperature;BMP_pressure;BME280_temperature;BME280_humidity;BME280_pressure;Samples;Min_cycle;Max_cycle;Signal;HPM_P1;HPM_P2
2023/06/12 00:01:44;;;;;;;;;;;;;;;13.57;72.13;101918.19;5046702;28;19917;-74
2023/06/12 00:04:13;;;;;;;;;;;;;;;13.49;72.71;101926.75;5045383;28;19925;-76
2023/06/12 00:06:39;;;;;;;;;;;;;;;13.39;72.86;101922.09;5033968;28;20026;-76
2023/06/12 00:09:05;;;;;;;;;;;;;;;13.42;73.33;101918.09;5053506;28;19966;-76
2023/06/12 00:11:31;;;;;;;;;;;;;;;13.27;73.34;101919.59;5013895;28;20778;-75
2023/06/12 00:13:57;;;;;;;;;;;;;;;13.20;73.77;101919.00;5043089;28;20007;-77
2023/06/12 00:16:22;;;;;;;;;;;;;;;13.14;74.07;101914.66;5036973;28;19954;-78
2023/06/12 00:18:49;;;;;;;;;;;;;;;13.06;74.25;101923.19;5021666;28;19975;-77
2023/06/12 00:21:19;;;;;;;;;;;;;;;13.15;74.38;101913.59;5042475;28;19936;-75
2023/06/12 00:23:46;;;;;;;;;;;;;;;13.14;74.15;101917.34;5047254;28;19921;-75
2023/06/12 00:26:14;;;;;;;;;;;;;;;13.29;73.87;101909.41;5022309;28;19925;-75
2023/06/12 00:28:42;;;;;;;;;;;;;;;13.29;73.59;101911.28;5015718;28;19917;-75
2023/06/12 00:31:08;;;;;;;;;;;;;;;13.34;73.37;101909.44;5030923;28;20012;-74
2023/06/12 00:33:33;;;;;;;;;;;;;;;13.33;73.04;101913.19;5049360;28;19927;-74
2023/06/12 00:35:59;;;;;;;;;;;;;;;13.29;73.13;101905.91;5037096;28;19921;-75
2023/06/12 00:38:25;;;;;;;;;;;;;;;13.42;72.82;101907.34;5045871;28;19905;-74
2023/06/12 00:40:53;;;;;;;;;;;;;;;13.52;72.45;101899.31;5056350;28;19931;-75
2023/06/12 00:43:23;;;;;;;;;;;;;;;13.55;72.17;101898.78;5033747;28;19927;-76
2023/06/12 00:45:49;;;;;;;;;;;;;;;13.46;72.52;101905.72;5012061;28;19947;-76
2023/06/12 00:48:15;;;;;;;;;;;;;;;13.43;72.87;101907.06;5012985;28;20008;-76
2023/06/12 00:50:44;;;;;;;;;;;;;;;13.34;73.15;101913.97;5047762;28;19925;-76
2023/06/12 00:53:10;;;;;;;;;;;;;;;13.22;73.01;101906.13;5032715;28;19960;-77
2023/06/12 00:55:35;;;;;;;;;;;;;;;13.17;73.40;101906.06;5045539;28;19959;-77
2023/06/12 00:58:02;;;;;;;;;;;;;;;13.12;73.65;101903.31;5027703;28;19929;-77
2023/06/12 01:00:27;;;;;;;;;;;;;;;13.05;73.70;101900.03;5042072;28;19975;-77
2023/06/12 01:02:55;;;;;;;;;;;;;;;13.06;73.44;101899.78;5031455;28;20093;-79
2023/06/12 01:05:28;;;;;;;;;;;;;;;12.96;74.00;101898.91;5013323;28;19991;-76
2023/06/12 01:08:15;;;;;;;;;;;;;;;12.89;74.23;101901.81;5017796;28;20768;-77
2023/06/12 01:10:52;;;;;;;;;;;;;;;12.98;74.15;101900.25;5018843;28;19924;-79
2023/06/12 01:13:18;;;;;;;;;;;;;;;13.08;73.70;101904.94;5009851;28;20388;-78
2023/06/12 01:15:44;;;;;;;;;;;;;;;13.02;73.48;101898.69;5019434;28;20445;-76
2023/06/12 01:18:10;;;;;;;;;;;;;;;13.00;73.80;101895.44;5033202;28;19963;-79
2023/06/12 01:20:35;;;;;;;;;;;;;;;13.08;73.23;101899.53;5028667;28;20375;-75
2023/06/12 01:23:05;;;;;;;;;;;;;;;13.16;72.58;101892.88;5002060;28;19925;-75
2023/06/12 01:25:43;;;;;;;;;;;;;;;13.07;73.16;101892.53;5037529;28;20412;-74
2023/06/12 01:28:23;;;;;;;;;;;;;;;12.92;73.88;101892.41;5012547;28;20027;-76
2023/06/12 01:31:08;;;;;;;;;;;;;;;12.88;73.90;101883.25;5030604;28;19936;-75
2023/06/12 01:33:37;;;;;;;;;;;;;;;12.73;74.36;101892.78;5013060;28;19960;-75
2023/06/12 01:36:06;;;;;;;;;;;;;;;12.72;74.86;101893.88;5014738;28;19999;-76
2023/06/12 01:40:05;;;;;;;;;;;;;;;12.61;75.26;101888.69;5082013;27;19920;-77
2023/06/12 01:42:31;;;;;;;;;;;;;;;12.72;75.08;101893.06;5068223;28;19925;-78
2023/06/12 01:44:57;;;;;;;;;;;;;;;12.66;74.76;101892.19;5036302;28;19932;-76
2023/06/12 01:47:23;;;;;;;;;;;;;;;12.74;74.47;101881.00;5076268;28;19929;-76
2023/06/12 01:49:50;;;;;;;;;;;;;;;12.60;75.01;101892.41;5032396;28;19928;-75
2023/06/12 01:52:16;;;;;;;;;;;;;;;12.49;75.72;101888.81;5034190;28;19920;-77
2023/06/12 01:54:45;;;;;;;;;;;;;;;12.42;75.70;101885.53;5051465;28;19931;-76
2023/06/12 01:57:11;;;;;;;;;;;;;;;12.35;75.81;101880.38;5043894;28;20314;-75
2023/06/12 01:59:39;;;;;;;;;;;;;;;12.26;76.32;101888.06;5070431;28;19925;-76
2023/06/12 02:02:04;;;;;;;;;;;;;;;12.17;76.61;101876.13;5054145;28;20461;-76
2023/06/12 02:04:30;;;;;;;;;;;;;;;12.10;76.90;101880.91;5049215;28;20377;-77
2023/06/12 02:06:58;;;;;;;;;;;;;;;12.27;76.30;101887.00;5011852;28;20011;-75
2023/06/12 02:09:26;;;;;;;;;;;;;;;12.32;76.05;101874.69;5047770;28;20035;-75
2023/06/12 02:11:52;;;;;;;;;;;;;;;12.30;76.34;101883.81;5042841;28;20556;-75
2023/06/12 02:14:17;;;;;;;;;;;;;;;12.27;76.23;101883.50;5035743;28;19921;-75
2023/06/12 02:16:45;;;;;;;;;;;;;;;12.21;76.24;101877.28;5062426;28;20503;-74
2023/06/12 02:19:12;;;;;;;;;;;;;;;12.25;76.49;101873.00;5040144;28;19924;-77
2023/06/12 02:21:38;;;;;;;;;;;;;;;12.26;76.20;101871.13;5056932;28;19983;-76
2023/06/12 02:24:03;;;;;;;;;;;;;;;12.61;74.86;101873.34;5067214;28;19917;-75
2023/06/12 02:26:30;;;;;;;;;;;;;;;12.36;75.77;101871.22;5039597;28;19928;-77
2023/06/12 02:29:09;;;;;;;;;;;;;;;12.28;75.83;101875.19;5026419;28;19917;-77
2023/06/12 02:31:38;;;;;;;;;;;;;;;12.15;76.32;101866.72;5026626;28;20083;-76
2023/06/12 02:34:04;;;;;;;;;;;;;;;12.09;76.81;101870.41;5068129;28;20461;-76
2023/06/12 02:36:30;;;;;;;;;;;;;;;11.98;77.40;101872.16;5044008;28;19920;-75
2023/06/12 02:38:56;;;;;;;;;;;;;;;11.93;77.31;101878.31;5042337;28;19932;-76
2023/06/12 02:41:22;;;;;;;;;;;;;;;11.88;77.59;101880.13;5043834;28;19929;-75
2023/06/12 02:43:48;;;;;;;;;;;;;;;11.85;77.78;101873.34;5029534;28;20378;-76
2023/06/12 02:46:14;;;;;;;;;;;;;;;11.85;78.01;101872.53;5056340;28;20036;-75
2023/06/12 02:48:39;;;;;;;;;;;;;;;11.77;78.03;101885.31;5040367;28;20426;-76
2023/06/12 02:51:05;;;;;;;;;;;;;;;11.74;78.32;101876.97;5027403;28;19921;-75
2023/06/12 02:53:31;;;;;;;;;;;;;;;11.66;78.57;101878.22;5012848;28;20008;-75
2023/06/12 02:55:57;;;;;;;;;;;;;;;11.66;79.01;101883.56;5033111;28;20000;-74
2023/06/12 02:58:22;;;;;;;;;;;;;;;11.71;78.58;101880.13;5029932;28;21785;-75
2023/06/12 03:00:48;;;;;;;;;;;;;;;11.70;78.91;101876.63;5029292;28;19921;-76
2023/06/12 03:03:15;;;;;;;;;;;;;;;11.69;78.62;101888.44;5032097;28;20024;-76
2023/06/12 03:05:43;;;;;;;;;;;;;;;11.69;78.58;101885.75;5051938;28;19925;-76
2023/06/12 03:08:09;;;;;;;;;;;;;;;11.72;78.60;101887.94;5028854;28;19948;-76
2023/06/12 03:10:35;;;;;;;;;;;;;;;11.78;78.51;101886.13;5037369;28;19964;-77
2023/06/12 03:13:01;;;;;;;;;;;;;;;11.78;78.62;101888.81;5029518;28;19979;-75
2023/06/12 03:15:27;;;;;;;;;;;;;;;11.80;78.53;101893.94;5016119;28;19928;-75
2023/06/12 03:17:53;;;;;;;;;;;;;;;11.88;78.33;101886.28;5014079;28;19925;-76
2023/06/12 03:20:18;;;;;;;;;;;;;;;12.10;77.93;101891.63;5017228;28;19927;-77
2023/06/12 03:22:44;;;;;;;;;;;;;;;12.15;77.12;101888.22;5029078;28;19925;-76
2023/06/12 03:25:10;;;;;;;;;;;;;;;12.22;76.73;101900.38;5012148;28;19917;-75
2023/06/12 03:27:37;;;;;;;;;;;;;;;12.25;76.66;101886.44;5043411;28;20268;-77
2023/06/12 03:30:03;;;;;;;;;;;;;;;12.32;76.33;101893.47;5008932;28;19925;-76
2023/06/12 03:32:30;;;;;;;;;;;;;;;12.37;75.80;101894.34;5014021;28;19921;-76
2023/06/12 03:35:00;;;;;;;;;;;;;;;12.45;75.66;101891.19;5031907;28;20023;-76
2023/06/12 03:37:28;;;;;;;;;;;;;;;12.58;74.75;101892.66;5030366;28;19921;-77
2023/06/12 03:39:55;;;;;;;;;;;;;;;12.55;74.66;101901.25;5029434;28;19921;-76
2023/06/12 03:42:21;;;;;;;;;;;;;;;12.56;74.62;101894.81;5045867;28;19928;-76
2023/06/12 03:44:52;;;;;;;;;;;;;;;12.56;74.71;101892.13;5025796;28;19970;-77
2023/06/12 03:47:18;;;;;;;;;;;;;;;12.56;75.11;101892.13;5032274;28;20302;-77
2023/06/12 03:49:46;;;;;;;;;;;;;;;12.53;75.34;101892.59;5018036;28;19920;-78
2023/06/12 03:52:12;;;;;;;;;;;;;;;12.45;76.66;101903.81;5046111;28;20063;-76
2023/06/12 03:54:39;;;;;;;;;;;;;;;12.46;75.70;101902.75;5012724;28;19924;-75
2023/06/12 03:57:05;;;;;;;;;;;;;;;12.42;75.87;101905.16;5048783;28;19921;-76
2023/06/12 03:59:31;;;;;;;;;;;;;;;12.53;75.55;101892.59;5029084;28;19931;-76
2023/06/12 04:01:58;;;;;;;;;;;;;;;12.50;75.55;101893.13;5021816;28;19921;-76
2023/06/12 04:04:24;;;;;;;;;;;;;;;12.66;74.66;101899.44;5047963;28;19917;-76
2023/06/12 04:06:50;;;;;;;;;;;;;;;12.73;74.38;101898.16;5029425;28;20004;-75
2023/06/12 04:09:16;;;;;;;;;;;;;;;12.88;73.58;101888.63;5026571;28;19954;-76
2023/06/12 04:11:42;;;;;;;;;;;;;;;12.91;73.51;101899.66;5016424;28;20027;-75
2023/06/12 04:14:08;;;;;;;;;;;;;;;12.92;73.26;101895.09;5029882;28;20040;-75
2023/06/12 04:16:34;;;;;;;;;;;;;;;12.98;73.60;101899.47;5017934;28;20357;-76
2023/06/12 04:19:03;;;;;;;;;;;;;;;13.02;73.60;101900.56;5026341;28;20431;-77
2023/06/12 04:21:33;;;;;;;;;;;;;;;13.18;72.73;101901.47;5027566;28;20043;-77
2023/06/12 04:24:02;;;;;;;;;;;;;;;13.26;72.45;101909.91;4993962;28;19925;-75
2023/06/12 04:26:28;;;;;;;;;;;;;;;13.24;72.64;101903.16;5044088;28;19917;-77
2023/06/12 04:28:56;;;;;;;;;;;;;;;13.25;72.86;101905.59;5030451;28;19960;-78
2023/06/12 04:31:23;;;;;;;;;;;;;;;13.21;72.72;101906.38;5012765;28;19928;-77
2023/06/12 04:33:51;;;;;;;;;;;;;;;13.25;73.24;101896.72;5048252;28;19925;-77
2023/06/12 04:36:17;;;;;;;;;;;;;;;13.37;72.38;101900.84;5046058;28;19935;-77
2023/06/12 04:38:43;;;;;;;;;;;;;;;13.51;72.21;101911.16;5027211;28;19937;-78
2023/06/12 04:41:10;;;;;;;;;;;;;;;13.59;71.94;101914.16;5026054;28;19917;-78
2023/06/12 04:43:36;;;;;;;;;;;;;;;13.74;71.55;101894.56;5016592;28;19927;-78
2023/06/12 04:46:02;;;;;;;;;;;;;;;13.89;71.34;101900.03;5026262;28;19986;-76
2023/06/12 04:48:28;;;;;;;;;;;;;;;13.90;71.67;101900.84;5025404;28;19921;-76
2023/06/12 04:50:54;;;;;;;;;;;;;;;14.06;69.63;101905.19;5025815;28;19917;-75
2023/06/12 04:53:27;;;;;;;;;;;;;;;14.13;70.23;101904.94;5012502;28;19983;-76
2023/06/12 04:55:56;;;;;;;;;;;;;;;14.32;69.31;101903.38;5030083;28;19921;-75
2023/06/12 04:58:23;;;;;;;;;;;;;;;14.47;69.36;101906.13;5046547;28;19936;-76
2023/06/12 05:00:49;;;;;;;;;;;;;;;14.64;68.69;101910.47;5044766;28;19983;-77
2023/06/12 05:03:17;;;;;;;;;;;;;;;14.81;67.87;101916.41;5013767;28;20194;-75
2023/06/12 05:05:46;;;;;;;;;;;;;;;14.99;66.94;101913.19;5015059;28;19929;-76
2023/06/12 05:08:13;;;;;;;;;;;;;;;15.18;66.10;101913.44;5013020;28;19917;-76
2023/06/12 05:10:39;;;;;;;;;;;;;;;15.35;66.30;101915.03;5058058;28;19920;-76
2023/06/12 05:13:06;;;;;;;;;;;;;;;15.55;65.23;101909.59;5031384;28;20400;-75
2023/06/12 05:15:32;;;;;;;;;;;;;;;15.70;64.89;101911.44;5028238;28;19926;-75
2023/06/12 05:17:57;;;;;;;;;;;;;;;15.93;63.92;101905.44;5047183;28;19921;-75
2023/06/12 05:20:23;;;;;;;;;;;;;;;15.92;64.12;101909.22;5030071;28;20012;-76
2023/06/12 05:22:50;;;;;;;;;;;;;;;16.06;63.86;101914.84;5030007;28;20016;-77
2023/06/12 05:25:19;;;;;;;;;;;;;;;16.15;64.18;101912.34;5007864;28;20611;-75
2023/06/12 05:27:45;;;;;;;;;;;;;;;16.37;62.51;101918.16;5029295;28;20291;-75
2023/06/12 05:30:11;;;;;;;;;;;;;;;16.54;63.46;101915.09;5046774;28;19924;-76
2023/06/12 05:32:37;;;;;;;;;;;;;;;16.71;62.32;101917.41;5059691;28;19921;-77
2023/06/12 05:35:03;;;;;;;;;;;;;;;16.95;60.77;101915.63;5048693;28;19921;-76
2023/06/12 05:37:29;;;;;;;;;;;;;;;17.22;58.92;101914.28;5029309;28;19921;-76
2023/06/12 05:39:54;;;;;;;;;;;;;;;17.39;59.25;101914.66;5029441;28;20452;-76
2023/06/12 05:42:21;;;;;;;;;;;;;;;17.67;55.96;101919.19;5031142;28;19928;-74
2023/06/12 05:44:47;;;;;;;;;;;;;;;17.84;54.95;101907.13;5009738;28;19921;-75
2023/06/12 05:47:13;;;;;;;;;;;;;;;17.99;54.73;101917.78;5066538;28;19921;-75
2023/06/12 05:49:38;;;;;;;;;;;;;;;18.14;54.96;101914.06;5021710;28;19929;-75
2023/06/12 05:52:07;;;;;;;;;;;;;;;18.37;53.87;101917.81;5040597;28;19921;-76
2023/06/12 05:54:33;;;;;;;;;;;;;;;18.45;53.24;101909.00;5013471;28;20297;-76
2023/06/12 05:56:59;;;;;;;;;;;;;;;18.61;53.12;101918.50;5018438;28;19970;-74
2023/06/12 05:59:26;;;;;;;;;;;;;;;18.59;52.42;101919.91;5014558;28;19925;-75
2023/06/12 06:01:51;;;;;;;;;;;;;;;18.86;53.69;101919.25;5042644;28;20276;-74
2023/06/12 06:04:17;;;;;;;;;;;;;;;19.12;52.41;101917.72;5040913;28;19943;-76
2023/06/12 06:06:43;;;;;;;;;;;;;;;19.19;52.12;101923.56;5029970;28;19921;-74
2023/06/12 06:09:10;;;;;;;;;;;;;;;19.18;51.18;101924.66;5025905;28;20313;-75
2023/06/12 06:11:36;;;;;;;;;;;;;;;19.34;51.10;101930.63;5046380;28;20020;-76
2023/06/12 06:14:03;;;;;;;;;;;;;;;19.47;50.29;101929.03;5027969;28;19925;-76
2023/06/12 06:16:28;;;;;;;;;;;;;;;19.66;50.03;101931.69;5025872;28;20544;-74
2023/06/12 06:18:54;;;;;;;;;;;;;;;19.83;50.03;101932.69;5040009;28;19925;-76
2023/06/12 06:21:20;;;;;;;;;;;;;;;19.94;50.10;101935.19;5042223;28;19921;-76
2023/06/12 06:23:48;;;;;;;;;;;;;;;20.07;48.00;101937.09;5009278;28;19987;-76
2023/06/12 06:26:14;;;;;;;;;;;;;;;20.14;48.30;101937.50;5010676;28;19921;-75
2023/06/12 06:28:40;;;;;;;;;;;;;;;20.27;47.57;101941.28;5025418;28;19921;-75
2023/06/12 06:31:09;;;;;;;;;;;;;;;20.33;47.21;101929.19;5045263;28;19956;-76
2023/06/12 06:33:35;;;;;;;;;;;;;;;20.49;46.67;101937.84;5043948;28;19921;-76
2023/06/12 06:36:01;;;;;;;;;;;;;;;20.64;47.80;101940.19;5012518;28;19928;-75
2023/06/12 06:38:26;;;;;;;;;;;;;;;20.84;47.00;101938.91;5031313;28;19925;-76
2023/06/12 06:40:52;;;;;;;;;;;;;;;21.08;46.35;101944.81;5045104;28;19921;-76
2023/06/12 06:43:19;;;;;;;;;;;;;;;21.17;45.05;101942.16;5031859;28;19921;-75
2023/06/12 06:45:50;;;;;;;;;;;;;;;21.12;44.81;101945.00;5029361;28;20036;-74
2023/06/12 06:48:17;;;;;;;;;;;;;;;21.27;44.68;101942.69;5028328;28;19944;-75
2023/06/12 06:50:43;;;;;;;;;;;;;;;21.44;44.86;101943.91;5015726;28;19921;-77
2023/06/12 06:53:09;;;;;;;;;;;;;;;21.48;43.98;101947.63;5031348;28;19921;-76
2023/06/12 06:55:35;;;;;;;;;;;;;;;21.48;43.93;101953.09;5027238;28;19947;-78
2023/06/12 06:58:04;;;;;;;;;;;;;;;21.46;43.86;101956.09;5029927;28;20434;-76
2023/06/12 07:00:31;;;;;;;;;;;;;;;21.86;44.32;101953.38;5047257;28;19925;-75
2023/06/12 07:02:57;;;;;;;;;;;;;;;21.90;43.06;101957.06;5028426;28;19943;-75
2023/06/12 07:05:30;;;;;;;;;;;;;;;21.77;42.87;101944.38;5032828;28;19999;-75
2023/06/12 07:07:55;;;;;;;;;;;;;;;22.03;42.70;101949.91;5026644;28;19971;-76
2023/06/12 07:10:21;;;;;;;;;;;;;;;22.12;43.02;101945.28;5046003;28;21297;-76
2023/06/12 07:12:56;;;;;;;;;;;;;;;22.37;42.63;101946.44;5032608;28;19921;-75
2023/06/12 07:15:25;;;;;;;;;;;;;;;22.31;42.21;101953.16;5028161;28;19918;-75
2023/06/12 07:17:51;;;;;;;;;;;;;;;22.33;41.48;101950.91;5044649;28;19921;-74
2023/06/12 07:20:17;;;;;;;;;;;;;;;22.21;41.56;101951.53;5035810;28;19955;-75
2023/06/12 07:22:42;;;;;;;;;;;;;;;22.50;41.76;101953.66;5041915;28;19924;-77
2023/06/12 07:25:10;;;;;;;;;;;;;;;22.76;42.01;101952.84;5029791;28;19928;-77
2023/06/12 07:27:35;;;;;;;;;;;;;;;22.95;41.62;101958.78;5026602;28;19960;-76
2023/06/12 07:30:01;;;;;;;;;;;;;;;22.90;39.55;101958.97;5027011;28;19925;-74
2023/06/12 07:32:27;;;;;;;;;;;;;;;22.86;40.59;101961.53;5043824;28;19921;-74
2023/06/12 07:34:54;;;;;;;;;;;;;;;22.96;40.03;101957.66;5028149;28;19925;-76
2023/06/12 07:37:20;;;;;;;;;;;;;;;23.10;39.48;101971.16;5026455;28;20354;-77
2023/06/12 07:39:49;;;;;;;;;;;;;;;23.18;40.07;101969.53;5013115;28;20019;-75
2023/06/12 07:42:15;;;;;;;;;;;;;;;23.43;39.47;101969.44;5041038;28;20007;-76
2023/06/12 07:44:42;;;;;;;;;;;;;;;23.63;39.52;101965.19;5060303;28;20553;-76
2023/06/12 07:47:08;;;;;;;;;;;;;;;23.56;38.88;101964.88;5042943;28;20615;-76
2023/06/12 07:49:33;;;;;;;;;;;;;;;23.83;39.29;101957.38;5028237;28;20439;-75
2023/06/12 07:51:59;;;;;;;;;;;;;;;23.88;38.13;101968.94;5060099;28;20358;-76
2023/06/12 07:54:25;;;;;;;;;;;;;;;23.41;39.88;101970.91;5026323;28;19972;-76
2023/06/12 07:56:51;;;;;;;;;;;;;;;23.55;38.51;101963.28;5011138;28;20008;-76
2023/06/12 07:59:18;;;;;;;;;;;;;;;23.67;38.45;101976.31;5044008;28;20382;-76
2023/06/12 08:01:51;;;;;;;;;;;;;;;23.80;38.51;101979.94;5027918;28;19998;-76
2023/06/12 08:04:19;;;;;;;;;;;;;;;24.06;38.34;101982.53;5044865;28;19927;-76
2023/06/12 08:06:47;;;;;;;;;;;;;;;24.33;37.36;101970.28;5059726;28;19925;-76
2023/06/12 08:09:14;;;;;;;;;;;;;;;24.44;37.46;101968.75;5026850;28;19918;-76
2023/06/12 08:11:41;;;;;;;;;;;;;;;24.72;36.58;101974.50;5043544;28;20027;-76
2023/06/12 08:14:08;;;;;;;;;;;;;;;24.50;36.86;101967.44;5030495;28;19966;-75
2023/06/12 08:16:35;;;;;;;;;;;;;;;24.63;36.68;101968.28;5029729;28;19925;-76
2023/06/12 08:19:00;;;;;;;;;;;;;;;24.40;36.03;101970.59;5039165;28;19932;-76
2023/06/12 08:21:31;;;;;;;;;;;;;;;24.62;36.50;101967.50;5024159;28;19917;-75
2023/06/12 08:23:57;;;;;;;;;;;;;;;24.48;36.27;101966.97;5025180;28;19928;-75
2023/06/12 08:26:25;;;;;;;;;;;;;;;24.97;36.34;101961.69;5028500;28;19975;-75
2023/06/12 08:28:52;;;;;;;;;;;;;;;24.84;36.48;101968.28;5031681;28;19928;-75
2023/06/12 08:31:21;;;;;;;;;;;;;;;24.87;35.09;101968.41;5025891;28;19943;-76
2023/06/12 08:33:46;;;;;;;;;;;;;;;24.99;35.02;101956.66;5009019;28;20469;-75
2023/06/12 08:36:12;;;;;;;;;;;;;;;25.29;35.58;101958.16;5026460;28;19959;-75
2023/06/12 08:38:38;;;;;;;;;;;;;;;25.36;35.55;101962.28;5023942;28;20294;-76
2023/06/12 08:41:05;;;;;;;;;;;;;;;25.36;34.88;101957.59;5009809;28;19921;-75
2023/06/12 08:43:32;;;;;;;;;;;;;;;25.25;34.62;101959.16;5022957;28;20343;-78
2023/06/12 08:46:00;;;;;;;;;;;;;;;25.37;35.40;101958.38;5010388;28;20641;-77
2023/06/12 08:48:27;;;;;;;;;;;;;;;25.34;34.13;101950.84;5009659;28;20441;-75
2023/06/12 08:50:52;;;;;;;;;;;;;;;25.50;34.56;101952.56;5026343;28;19925;-74
2023/06/12 08:53:18;;;;;;;;;;;;;;;25.65;34.05;101953.03;5041305;28;19946;-76
2023/06/12 08:55:44;;;;;;;;;;;;;;;25.90;34.66;101953.84;5045012;28;20027;-76
2023/06/12 08:58:10;;;;;;;;;;;;;;;26.26;33.64;101951.03;5029667;28;20393;-75
2023/06/12 09:00:36;;;;;;;;;;;;;;;26.44;32.53;101959.03;5036296;28;19970;-77
2023/06/12 09:03:04;;;;;;;;;;;;;;;26.62;32.27;101946.59;5024520;28;20409;-75
2023/06/12 09:05:33;;;;;;;;;;;;;;;26.29;32.14;101955.06;5040302;28;19928;-77
2023/06/12 09:08:00;;;;;;;;;;;;;;;26.24;31.98;101969.81;5027293;28;20389;-75
2023/06/12 09:10:26;;;;;;;;;;;;;;;26.21;31.62;101959.50;5028325;28;19917;-76
2023/06/12 09:12:55;;;;;;;;;;;;;;;26.46;31.53;101960.28;5014406;28;19921;-77
2023/06/12 09:15:21;;;;;;;;;;;;;;;26.87;30.84;101959.06;5025688;28;19921;-76
2023/06/12 09:17:50;;;;;;;;;;;;;;;26.97;30.50;101956.97;5024739;28;20057;-75
2023/06/12 09:20:24;;;;;;;;;;;;;;;27.26;30.71;101948.34;5045423;28;19921;-74
2023/06/12 09:22:51;;;;;;;;;;;;;;;27.23;30.37;101957.28;5027304;28;19938;-75
2023/06/12 09:25:17;;;;;;;;;;;;;;;27.49;30.10;101952.06;5027504;28;19944;-74
2023/06/12 09:27:43;;;;;;;;;;;;;;;27.12;29.00;101959.78;5013826;28;20228;-74
2023/06/12 09:30:09;;;;;;;;;;;;;;;27.16;28.90;101959.84;5057306;28;19920;-76
2023/06/12 09:32:35;;;;;;;;;;;;;;;27.27;28.08;101955.44;5026018;28;20378;-76
2023/06/12 09:35:02;;;;;;;;;;;;;;;27.53;27.37;101956.88;5027141;28;20383;-75
2023/06/12 09:37:28;;;;;;;;;;;;;;;27.28;27.16;101951.53;5039371;28;19927;-75
2023/06/12 09:40:13;;;;;;;;;;;;;;;27.73;28.84;101945.59;5028091;28;19925;-78
2023/06/12 09:42:39;;;;;;;;;;;;;;;27.72;27.26;101954.22;5023904;28;20382;-76
2023/06/12 09:45:20;;;;;;;;;;;;;;;28.17;26.52;101956.41;5055482;28;20405;-75
2023/06/12 09:47:46;;;;;;;;;;;;;;;27.56;25.86;101956.94;5040769;28;19920;-75
2023/06/12 09:50:13;;;;;;;;;;;;;;;27.47;27.05;101957.13;5031448;28;19920;-76
2023/06/12 09:52:42;;;;;;;;;;;;;;;27.14;25.71;101968.47;5028099;28;19929;-76
2023/06/12 09:55:09;;;;;;;;;;;;;;;27.61;24.77;101958.63;5026513;28;19920;-74
2023/06/12 09:57:36;;;;;;;;;;;;;;;27.52;25.10;101960.78;5014441;28;19921;-75
2023/06/12 10:00:05;;;;;;;;;;;;;;;27.45;24.20;101959.44;5030394;28;20301;-75
2023/06/12 10:02:41;;;;;;;;;;;;;;;27.85;25.14;101963.97;5027864;28;20008;-78
2023/06/12 10:05:19;;;;;;;;;;;;;;;27.70;24.84;101962.00;5031874;28;20750;-76
2023/06/12 10:07:47;;;;;;;;;;;;;;;27.83;24.67;101959.94;5015237;28;20230;-75
2023/06/12 10:10:16;;;;;;;;;;;;;;;27.63;24.44;101957.09;5035518;28;19925;-75
2023/06/12 10:12:45;;;;;;;;;;;;;;;27.97;25.85;101963.03;5044192;28;19987;-75
2023/06/12 10:15:20;;;;;;;;;;;;;;;27.92;24.64;101958.63;5038345;28;19921;-75
2023/06/12 10:17:47;;;;;;;;;;;;;;;27.52;24.98;101955.28;5051117;28;19922;-74
2023/06/12 10:20:14;;;;;;;;;;;;;;;27.82;25.21;101959.16;5016793;28;19929;-76
2023/06/12 10:22:40;;;;;;;;;;;;;;;28.14;26.36;101948.06;5030544;28;19929;-76
2023/06/12 10:25:07;;;;;;;;;;;;;;;28.01;24.36;101959.22;5033327;28;20441;-74
2023/06/12 10:27:32;;;;;;;;;;;;;;;27.84;24.62;101945.03;5016057;28;19947;-74
2023/06/12 10:29:59;;;;;;;;;;;;;;;27.64;24.78;101957.94;5036680;28;19917;-77
2023/06/12 10:32:26;;;;;;;;;;;;;;;27.81;24.58;101945.75;5024622;28;19944;-75
2023/06/12 10:34:54;;;;;;;;;;;;;;;28.58;24.98;101934.03;5014067;28;20351;-76
2023/06/12 10:37:39;;;;;;;;;;;;;;;28.10;24.54;101944.44;5046357;28;19921;-75
2023/06/12 10:40:10;;;;;;;;;;;;;;;28.17;24.78;101939.06;5033625;28;19920;-75
2023/06/12 10:42:40;;;;;;;;;;;;;;;28.31;24.71;101944.91;5031443;28;19968;-75
2023/06/12 10:45:13;;;;;;;;;;;;;;;27.93;24.94;101935.44;5002864;28;20390;-75
2023/06/12 10:47:39;;;;;;;;;;;;;;;27.28;23.89;101935.03;5026594;28;19924;-75
2023/06/12 10:50:05;;;;;;;;;;;;;;;27.63;24.88;101924.09;5051690;28;19927;-77
2023/06/12 10:52:32;;;;;;;;;;;;;;;28.03;25.51;101932.09;5029657;28;19921;-76
2023/06/12 10:55:19;;;;;;;;;;;;;;;27.86;23.98;101937.22;5026335;28;20382;-77
2023/06/12 10:57:55;;;;;;;;;;;;;;;27.62;24.08;101932.69;5063918;28;19961;-75
2023/06/12 11:00:29;;;;;;;;;;;;;;;27.64;24.53;101924.91;5016939;28;19932;-76
2023/06/12 11:03:07;;;;;;;;;;;;;;;28.00;23.15;101924.56;5014317;28;19975;-73
2023/06/12 11:05:33;;;;;;;;;;;;;;;28.13;22.81;101918.94;5045569;28;19925;-74
2023/06/12 11:07:59;;;;;;;;;;;;;;;28.35;22.68;101925.72;5016290;28;19939;-78
2023/06/12 11:10:27;;;;;;;;;;;;;;;28.15;22.91;101944.16;5035222;28;20317;-75
2023/06/12 11:12:53;;;;;;;;;;;;;;;28.22;23.20;101933.28;5051325;28;19962;-74
2023/06/12 11:15:19;;;;;;;;;;;;;;;27.93;22.33;101932.69;5043030;28;20322;-76
2023/06/12 11:17:47;;;;;;;;;;;;;;;27.93;21.81;101937.38;5045961;23;19929;-75
2023/06/12 11:20:14;;;;;;;;;;;;;;;28.68;21.36;101925.19;5010929;28;20267;-76
2023/06/12 11:22:40;;;;;;;;;;;;;;;28.64;20.71;101930.63;5004959;28;19988;-76
2023/06/12 11:25:06;;;;;;;;;;;;;;;28.19;21.15;101934.03;5011667;28;19928;-75
2023/06/12 11:27:33;;;;;;;;;;;;;;;28.36;21.66;101927.31;5008544;28;19922;-75
2023/06/12 11:30:06;;;;;;;;;;;;;;;29.12;21.93;101917.34;5024506;28;19922;-78
2023/06/12 11:32:34;;;;;;;;;;;;;;;29.14;20.79;101922.50;4997099;28;20403;-74
2023/06/12 11:35:02;;;;;;;;;;;;;;;29.12;20.22;101919.28;4996778;28;19960;-73
2023/06/12 11:37:28;;;;;;;;;;;;;;;28.47;21.16;101920.84;5024649;28;19921;-76
2023/06/12 11:40:01;;;;;;;;;;;;;;;28.29;21.17;101930.69;5007667;28;19936;-78
2023/06/12 11:42:27;;;;;;;;;;;;;;;28.03;21.42;101926.59;4999419;28;19921;-76
2023/06/12 11:44:53;;;;;;;;;;;;;;;28.74;21.18;101920.97;4993771;28;19971;-76
2023/06/12 11:47:19;;;;;;;;;;;;;;;28.65;21.02;101917.63;5011743;28;20016;-76
2023/06/12 11:49:45;;;;;;;;;;;;;;;28.68;21.11;101911.41;5007947;28;19924;-76
2023/06/12 11:52:11;;;;;;;;;;;;;;;28.75;20.16;101906.81;4992165;28;20124;-79
2023/06/12 11:54:56;;;;;;;;;;;;;;;29.30;20.42;101901.88;4978271;28;19922;-76
2023/06/12 11:57:23;;;;;;;;;;;;;;;29.35;20.10;101895.25;4994508;28;19921;-75
2023/06/12 11:59:49;;;;;;;;;;;;;;;30.30;19.99;101892.28;5008032;28;21324;-76
2023/06/12 12:02:16;;;;;;;;;;;;;;;29.91;19.95;101903.59;5006040;28;19917;-75
2023/06/12 12:04:46;;;;;;;;;;;;;;;29.55;19.50;101887.72;5009777;28;20012;-75
2023/06/12 12:07:12;;;;;;;;;;;;;;;29.70;19.76;101886.75;5006375;28;20426;-76
2023/06/12 12:09:38;;;;;;;;;;;;;;;29.94;20.67;101888.22;5000889;28;19922;-75
2023/06/12 12:12:08;;;;;;;;;;;;;;;29.18;19.32;101890.25;5003582;28;19922;-76
2023/06/12 12:14:34;;;;;;;;;;;;;;;29.86;19.62;101881.81;5003537;28;19928;-75
2023/06/12 12:17:03;;;;;;;;;;;;;;;29.99;18.69;101887.91;5004405;28;20009;-75
2023/06/12 12:19:29;;;;;;;;;;;;;;;29.89;18.58;101875.56;4999952;28;20402;-75
2023/06/12 12:21:56;;;;;;;;;;;;;;;30.12;18.36;101880.22;5022071;28;19921;-75
2023/06/12 12:24:21;;;;;;;;;;;;;;;30.45;18.77;101879.41;5017685;28;19929;-75
2023/06/12 12:26:51;;;;;;;;;;;;;;;30.27;18.51;101870.13;5019944;28;19921;-78
2023/06/12 12:29:20;;;;;;;;;;;;;;;30.58;18.81;101874.41;5023401;28;19924;-76
2023/06/12 12:31:46;;;;;;;;;;;;;;;30.13;18.87;101871.53;5024216;28;19921;-76
2023/06/12 12:34:14;;;;;;;;;;;;;;;30.16;18.66;101876.34;4992676;28;19971;-77
2023/06/12 12:36:40;;;;;;;;;;;;;;;30.39;18.75;101875.41;4980489;28;20028;-77
2023/06/12 12:39:06;;;;;;;;;;;;;;;30.33;18.74;101876.91;5000034;28;19926;-75